createdAt,value
2023-05-20T00:00:36.446Z,1.00
2023-05-20T00:03:38.341Z,1.60
2023-05-20T00:06:40.265Z,1.40
2023-05-20T00:09:42.159Z,1.13
2023-05-20T00:12:44.196Z,1.30
2023-05-20T00:15:46.027Z,1.33
2023-05-20T00:18:47.812Z,1.07
2023-05-20T00:21:49.568Z,1.40
2023-05-20T00:24:51.367Z,1.60
2023-05-20T00:27:53.190Z,1.03
2023-05-20T00:30:55.022Z,1.17
2023-05-20T00:33:56.743Z,1.13
2023-05-20T00:36:59.092Z,1.50
2023-05-20T00:40:01.043Z,1.20
2023-05-20T00:43:02.826Z,1.20
2023-05-20T00:46:04.871Z,1.30
2023-05-20T00:49:06.811Z,1.23
2023-05-20T00:52:08.932Z,1.27
2023-05-20T00:55:10.899Z,1.30
2023-05-20T00:58:12.895Z,1.30
2023-05-20T01:01:14.804Z,1.50
2023-05-20T01:04:16.746Z,1.50
2023-05-20T01:07:19.671Z,1.40
2023-05-20T01:10:25.327Z,1.37
2023-05-20T01:13:33.813Z,1.10
2023-05-20T01:16:36.469Z,1.10
2023-05-20T01:19:45.464Z,1.37
2023-05-20T01:22:48.691Z,1.80
2023-05-20T01:25:50.403Z,1.30
2023-05-20T01:28:52.458Z,1.43
2023-05-20T01:31:56.995Z,1.43
2023-05-20T01:35:00.260Z,1.30
2023-05-20T01:38:04.212Z,1.40
2023-05-20T01:41:07.255Z,1.20
2023-05-20T01:44:09.844Z,1.30
2023-05-20T01:47:12.054Z,1.67
2023-05-20T01:50:13.842Z,1.40
2023-05-20T01:53:15.780Z,1.83
2023-05-20T01:56:17.546Z,1.30
2023-05-20T01:59:19.405Z,1.20
2023-05-20T02:02:21.233Z,1.40
2023-05-20T02:05:22.996Z,1.43
2023-05-20T02:08:24.764Z,1.43
2023-05-20T02:11:26.596Z,1.43
2023-05-20T02:14:29.597Z,1.50
2023-05-20T02:17:31.664Z,1.23
2023-05-20T02:20:36.526Z,1.37
2023-05-20T02:23:38.239Z,1.40
2023-05-20T02:26:40.017Z,1.73
2023-05-20T02:29:44.224Z,1.20
2023-05-20T02:32:46.730Z,1.40
2023-05-20T02:35:48.575Z,1.20
2023-05-20T02:38:51.100Z,1.60
2023-05-20T02:41:52.824Z,1.27
2023-05-20T02:44:58.354Z,1.30
2023-05-20T02:48:01.114Z,1.17
2023-05-20T02:51:02.991Z,1.40
2023-05-20T02:54:11.453Z,1.27
2023-05-20T02:57:13.471Z,1.57
2023-05-20T03:00:16.428Z,1.50
2023-05-20T03:03:18.554Z,1.20
2023-05-20T03:06:20.459Z,1.40
2023-05-20T03:09:22.274Z,1.53
2023-05-20T03:12:26.180Z,1.47
2023-05-20T03:15:28.101Z,1.40
2023-05-20T03:18:29.996Z,1.53
2023-05-20T03:21:32.451Z,1.27
2023-05-20T03:24:34.687Z,1.30
2023-05-20T03:27:38.003Z,1.93
2023-05-20T03:30:40.952Z,1.60
2023-05-20T03:33:43.047Z,1.90
2023-05-20T03:36:45.082Z,2.00
2023-05-20T03:39:47.089Z,1.60
2023-05-20T03:42:50.964Z,1.80
2023-05-20T03:45:54.659Z,1.53
2023-05-20T03:48:57.875Z,1.57
2023-05-20T03:51:59.742Z,1.57
2023-05-20T03:55:01.992Z,1.60
2023-05-20T03:58:03.975Z,1.50
2023-05-20T04:01:07.745Z,1.70
2023-05-20T04:04:09.680Z,2.10
2023-05-20T04:07:11.872Z,2.00
2023-05-20T04:10:14.012Z,1.80
2023-05-20T04:13:16.416Z,1.47
2023-05-20T04:16:18.577Z,1.80
2023-05-20T04:19:20.452Z,1.70
2023-05-20T04:22:22.733Z,1.40
2023-05-20T04:25:26.053Z,1.47
2023-05-20T04:28:31.745Z,1.73
2023-05-20T04:31:33.677Z,1.60
2023-05-20T04:34:37.339Z,1.90
2023-05-20T04:37:39.438Z,1.57
2023-05-20T04:40:41.895Z,1.53
2023-05-20T04:43:44.047Z,1.60
2023-05-20T04:46:46.117Z,1.57
2023-05-20T04:49:50.330Z,1.73
2023-05-20T04:52:52.204Z,1.47
2023-05-20T04:55:57.333Z,1.70
2023-05-20T04:58:59.873Z,1.70
2023-05-20T05:02:01.778Z,1.90
2023-05-20T05:05:04.148Z,1.93
2023-05-20T05:08:06.979Z,1.40
2023-05-20T05:11:14.240Z,1.47
2023-05-20T05:14:16.766Z,2.03
2023-05-20T05:17:18.680Z,2.03
2023-05-20T05:20:20.972Z,1.50
2023-05-20T05:23:22.778Z,1.97
2023-05-20T05:26:24.692Z,1.90
2023-05-20T05:29:26.526Z,1.50
2023-05-20T05:32:28.628Z,1.70
2023-05-20T05:35:30.480Z,1.53
2023-05-20T05:38:33.008Z,1.70
2023-05-20T05:41:35.095Z,2.17
2023-05-20T05:44:37.275Z,1.90
2023-05-20T05:47:43.057Z,1.80
2023-05-20T05:50:46.384Z,1.90
2023-05-20T05:53:49.983Z,1.70
2023-05-20T05:56:52.496Z,1.63
2023-05-20T05:59:54.884Z,1.90
2023-05-20T06:02:58.274Z,1.80
2023-05-20T06:06:07.724Z,1.60
2023-05-20T06:09:10.082Z,2.07
2023-05-20T06:12:14.008Z,1.70
2023-05-20T06:15:16.708Z,2.43
2023-05-20T06:18:19.094Z,2.07
2023-05-20T06:21:21.557Z,1.93
2023-05-20T06:24:24.613Z,2.17
2023-05-20T06:27:27.740Z,2.03
2023-05-20T06:30:29.661Z,1.80
2023-05-20T06:33:31.691Z,2.13
2023-05-20T06:36:37.538Z,2.23
2023-05-20T06:39:39.970Z,2.47
2023-05-20T06:42:44.202Z,2.20
2023-05-20T06:45:46.131Z,2.60
2023-05-20T06:48:58.468Z,2.93
2023-05-20T06:52:01.146Z,2.70
2023-05-20T06:55:05.229Z,2.50
2023-05-20T06:58:08.957Z,2.43
2023-05-20T07:01:11.390Z,2.60
2023-05-20T07:04:14.553Z,2.30
2023-05-20T07:07:17.457Z,2.07
2023-05-20T07:10:20.639Z,2.70
2023-05-20T07:13:24.180Z,2.73
2023-05-20T07:16:26.572Z,2.37
2023-05-20T07:19:30.596Z,2.10
2023-05-20T07:22:32.574Z,2.03
2023-05-20T07:25:44.288Z,1.80
2023-05-20T07:28:47.137Z,2.30
2023-05-20T07:31:49.219Z,2.43
2023-05-20T07:34:52.197Z,2.37
2023-05-20T07:37:54.198Z,2.30
2023-05-20T07:40:56.944Z,1.90
2023-05-20T07:43:59.284Z,2.30
2023-05-20T07:47:01.590Z,2.77
2023-05-20T07:50:03.599Z,2.57
2023-05-20T07:53:08.657Z,2.90
2023-05-20T07:56:11.020Z,3.03
2023-05-20T07:59:14.194Z,2.00
2023-05-20T08:02:19.651Z,2.10
2023-05-20T08:05:22.790Z,2.53
2023-05-20T08:08:24.760Z,2.27
2023-05-20T08:11:33.979Z,2.43
2023-05-20T08:14:36.161Z,2.60
2023-05-20T08:17:38.908Z,2.67
2023-05-20T08:20:43.797Z,2.87
2023-05-20T08:23:45.829Z,2.50
2023-05-20T08:26:47.589Z,2.40
2023-05-20T08:29:50.956Z,3.27
2023-05-20T08:32:52.802Z,2.90
2023-05-20T08:35:55.579Z,2.17
2023-05-20T08:38:57.585Z,3.00
2023-05-20T08:41:59.569Z,2.40
2023-05-20T08:45:01.893Z,2.20
2023-05-20T08:48:05.464Z,2.93
2023-05-20T08:51:10.712Z,2.87
2023-05-20T08:54:14.810Z,2.77
2023-05-20T08:57:16.826Z,2.57
2023-05-20T09:00:20.263Z,2.50
2023-05-20T09:03:23.869Z,2.73
2023-05-20T09:06:25.717Z,2.50
2023-05-20T09:09:27.470Z,2.40
2023-05-20T09:12:29.264Z,2.57
2023-05-20T09:15:35.637Z,2.20
2023-05-20T09:18:40.843Z,2.53
2023-05-20T09:21:44.475Z,2.30
2023-05-20T09:24:48.586Z,2.13
2023-05-20T09:27:50.627Z,2.10
2023-05-20T09:31:00.204Z,2.20
2023-05-20T09:34:02.791Z,2.23
2023-05-20T09:37:07.302Z,2.90
2023-05-20T09:40:12.313Z,2.07
2023-05-20T09:43:14.256Z,2.00
2023-05-20T09:46:16.826Z,2.40
2023-05-20T09:49:20.533Z,2.00
2023-05-20T09:52:22.879Z,2.43
2023-05-20T09:55:26.076Z,2.27
2023-05-20T09:58:29.503Z,2.50
2023-05-20T10:01:31.876Z,2.03
2023-05-20T10:04:36.079Z,2.90
2023-05-20T10:07:58.969Z,2.53
2023-05-20T10:11:41.344Z,2.10
2023-05-20T10:14:55.060Z,2.40
2023-05-20T10:18:06.173Z,2.70
2023-05-20T10:21:18.827Z,2.70
2023-05-20T10:24:33.315Z,2.50
2023-05-20T10:27:48.171Z,2.57
2023-05-20T10:30:51.062Z,2.63
2023-05-20T10:33:53.958Z,2.67
2023-05-20T10:36:55.828Z,2.50
2023-05-20T10:40:07.119Z,2.80
2023-05-20T10:43:11.380Z,2.47
2023-05-20T10:46:31.799Z,2.78
2023-05-20T10:49:41.629Z,2.47
2023-05-20T10:52:43.445Z,2.17
2023-05-20T10:55:54.596Z,2.42
2023-05-20T10:58:56.357Z,1.92
2023-05-20T11:01:58.546Z,2.00
2023-05-20T11:05:01.326Z,2.05
2023-05-20T11:08:13.722Z,2.33
2023-05-20T11:11:23.231Z,1.95
2023-05-20T11:14:25.373Z,2.10
2023-05-20T11:17:27.280Z,2.25
2023-05-20T11:20:30.232Z,1.98
2023-05-20T11:23:32.070Z,1.92
2023-05-20T11:26:34.520Z,1.58
2023-05-20T11:29:36.935Z,1.88
2023-05-20T11:32:38.820Z,1.77
2023-05-20T11:35:51.958Z,1.42
2023-05-20T11:38:53.738Z,1.40
2023-05-20T11:41:55.704Z,1.63
2023-05-20T11:45:01.297Z,1.33
2023-05-20T11:48:05.235Z,1.42
2023-05-20T11:51:08.878Z,1.60
2023-05-20T11:54:11.333Z,1.45
2023-05-20T11:57:13.274Z,1.70
2023-05-20T12:00:15.146Z,1.45
2023-05-20T12:03:17.452Z,1.40
2023-05-20T12:06:19.676Z,1.45
2023-05-20T12:09:22.433Z,1.48
2023-05-20T12:12:25.459Z,1.10
2023-05-20T12:15:27.299Z,0.98
2023-05-20T12:18:29.208Z,1.10
2023-05-20T12:21:31.517Z,1.67
2023-05-20T12:24:33.364Z,0.90
2023-05-20T12:27:35.208Z,1.50
2023-05-20T12:30:37.317Z,1.60
2023-05-20T12:33:39.147Z,1.38
2023-05-20T12:36:40.942Z,1.30
2023-05-20T12:39:43.311Z,1.33
2023-05-20T12:42:45.271Z,1.40
2023-05-20T12:45:47.266Z,1.20
2023-05-20T12:48:49.141Z,0.90
2023-05-20T12:51:51.131Z,1.05
2023-05-20T12:54:56.918Z,1.52
2023-05-20T12:57:58.731Z,1.25
2023-05-20T13:01:00.605Z,0.93
2023-05-20T13:04:02.422Z,1.30
2023-05-20T13:07:04.691Z,1.27
2023-05-20T13:10:07.591Z,1.45
2023-05-20T13:13:09.439Z,1.40
2023-05-20T13:16:11.939Z,1.52
2023-05-20T13:19:13.927Z,1.40
2023-05-20T13:22:15.839Z,1.90
2023-05-20T13:25:17.928Z,1.60
2023-05-20T13:28:20.837Z,1.55
2023-05-20T13:31:22.860Z,1.40
2023-05-20T13:34:25.096Z,1.30
2023-05-20T13:37:26.870Z,1.23
2023-05-20T13:40:28.751Z,1.10
2023-05-20T13:43:31.947Z,1.20
2023-05-20T13:46:34.029Z,1.30
2023-05-20T13:49:35.886Z,1.10
2023-05-20T13:52:37.776Z,1.80
2023-05-20T13:55:42.673Z,1.52
2023-05-20T13:58:45.377Z,1.25
2023-05-20T14:01:47.349Z,1.50
2023-05-20T14:04:49.199Z,1.40
2023-05-20T14:07:51.125Z,1.35
2023-05-20T14:10:55.876Z,1.42
2023-05-20T14:13:57.773Z,1.58
2023-05-20T14:16:59.780Z,1.67
2023-05-20T14:20:01.727Z,1.55
2023-05-20T14:23:03.608Z,1.60
2023-05-20T14:26:05.481Z,1.52
2023-05-20T14:29:07.336Z,1.88
2023-05-20T14:32:11.467Z,1.52
2023-05-20T14:35:14.197Z,1.70
2023-05-20T14:38:16.772Z,1.75
2023-05-20T14:41:18.663Z,1.42
2023-05-20T14:44:20.823Z,1.77
2023-05-20T14:47:22.729Z,1.92
2023-05-20T14:50:24.662Z,1.20
2023-05-20T14:53:26.529Z,1.70
2023-05-20T14:56:28.353Z,1.80
2023-05-20T14:59:30.085Z,1.50
2023-05-20T15:02:32.070Z,1.63
2023-05-20T15:05:33.821Z,1.20
2023-05-20T15:08:35.662Z,1.55
2023-05-20T15:11:37.457Z,1.77
2023-05-20T15:14:39.287Z,1.20
2023-05-20T15:17:41.292Z,1.65
2023-05-20T15:20:44.520Z,1.45
2023-05-20T15:23:46.729Z,1.70
2023-05-20T15:26:48.634Z,1.30
2023-05-20T15:29:50.486Z,1.75
2023-05-20T15:32:52.389Z,1.40
2023-05-20T15:35:54.243Z,1.45
2023-05-20T15:38:56.026Z,1.50
2023-05-20T15:41:59.690Z,1.30
2023-05-20T15:45:01.652Z,1.88
2023-05-20T15:48:03.649Z,1.50
2023-05-20T15:51:06.012Z,1.40
2023-05-20T15:54:08.097Z,1.23
2023-05-20T15:57:10.173Z,1.50
2023-05-20T16:00:14.493Z,1.75
2023-05-20T16:03:17.765Z,4.45
2023-05-20T16:06:19.627Z,1.60
2023-05-20T16:09:22.069Z,2.70
2023-05-20T16:12:24.095Z,1.90
2023-05-20T16:15:26.810Z,1.70
2023-05-20T16:18:29.599Z,2.17
2023-05-20T16:21:31.617Z,1.92
2023-05-20T16:24:33.468Z,1.73
2023-05-20T16:27:35.395Z,1.67
2023-05-20T16:30:37.369Z,1.77
2023-05-20T16:33:39.298Z,1.88
2023-05-20T16:36:41.203Z,1.75
2023-05-20T16:39:43.191Z,2.50
2023-05-20T16:42:46.267Z,1.63
2023-05-20T16:45:48.310Z,1.88
2023-05-20T16:48:50.173Z,1.30
2023-05-20T16:51:52.294Z,1.90
2023-05-20T16:54:54.234Z,6.15
2023-05-20T16:57:56.071Z,2.92
2023-05-20T17:00:57.934Z,6.57
2023-05-20T17:03:59.806Z,2.03
2023-05-20T17:07:01.724Z,2.57
2023-05-20T17:10:03.837Z,2.20
2023-05-20T17:13:05.820Z,2.00
2023-05-20T17:16:09.899Z,1.97
2023-05-20T17:19:12.103Z,2.07
2023-05-20T17:22:14.065Z,2.40
2023-05-20T17:25:16.869Z,2.23
2023-05-20T17:28:18.714Z,1.73
2023-05-20T17:31:20.706Z,1.83
2023-05-20T17:34:22.574Z,1.70
2023-05-20T17:37:24.489Z,2.00
2023-05-20T17:40:26.383Z,2.00
2023-05-20T17:43:28.269Z,2.00
2023-05-20T17:46:30.151Z,2.10
2023-05-20T17:49:31.963Z,1.93
2023-05-20T17:52:33.780Z,1.73
2023-05-20T17:55:36.583Z,2.17
2023-05-20T17:58:38.725Z,2.07
2023-05-20T18:01:41.647Z,2.30
2023-05-20T18:04:43.538Z,1.87
2023-05-20T18:07:45.966Z,2.73
2023-05-20T18:10:47.943Z,2.50
2023-05-20T18:13:49.742Z,1.97
2023-05-20T18:16:51.641Z,3.20
2023-05-20T18:19:53.914Z,2.40
2023-05-20T18:22:58.529Z,2.70
2023-05-20T18:26:00.616Z,2.07
2023-05-20T18:29:02.374Z,2.17
2023-05-20T18:32:04.611Z,2.97
2023-05-20T18:35:07.083Z,2.83
2023-05-20T18:38:08.852Z,3.27
2023-05-20T18:41:10.845Z,3.50
2023-05-20T18:44:12.692Z,3.00
2023-05-20T18:47:15.141Z,3.27
2023-05-20T18:50:17.018Z,3.20
2023-05-20T18:53:19.299Z,3.17
2023-05-20T18:56:21.597Z,3.20
2023-05-20T18:59:25.156Z,3.13
2023-05-20T19:02:27.141Z,3.23
2023-05-20T19:05:29.968Z,3.40
2023-05-20T19:08:32.392Z,3.27
2023-05-20T19:11:34.177Z,2.63
2023-05-20T19:14:36.187Z,2.97
2023-05-20T19:17:38.226Z,3.07
2023-05-20T19:20:40.105Z,3.33
2023-05-20T19:23:42.112Z,3.20
2023-05-20T19:26:44.529Z,2.80
2023-05-20T19:29:46.398Z,3.17
2023-05-20T19:32:48.239Z,3.47
2023-05-20T19:35:50.145Z,3.43
2023-05-20T19:38:51.952Z,3.07
2023-05-20T19:41:53.991Z,3.27
2023-05-20T19:44:56.383Z,3.47
2023-05-20T19:47:58.693Z,3.63
2023-05-20T19:51:00.696Z,3.47
2023-05-20T19:54:02.496Z,3.10
2023-05-20T19:57:04.486Z,3.63
2023-05-20T20:00:07.241Z,3.73
2023-05-20T20:03:14.726Z,3.70
2023-05-20T20:06:16.617Z,4.00
2023-05-20T20:09:18.439Z,4.17
2023-05-20T20:12:20.281Z,3.97
2023-05-20T20:15:22.146Z,4.03
2023-05-20T20:18:24.291Z,3.60
2023-05-20T20:21:26.349Z,3.93
2023-05-20T20:24:28.180Z,4.30
2023-05-20T20:27:30.046Z,4.53
2023-05-20T20:30:31.946Z,4.17
2023-05-20T20:33:33.779Z,4.20
2023-05-20T20:36:35.699Z,3.80
2023-05-20T20:39:37.512Z,4.50
2023-05-20T20:42:45.149Z,4.73
2023-05-20T20:45:47.133Z,4.70
2023-05-20T20:48:50.214Z,4.23
2023-05-20T20:51:53.182Z,4.17
2023-05-20T20:54:57.022Z,4.30
2023-05-20T20:58:02.603Z,4.43
2023-05-20T21:01:05.696Z,4.50
2023-05-20T21:04:13.919Z,4.43
2023-05-20T21:07:18.915Z,4.33
2023-05-20T21:10:21.188Z,3.93
2023-05-20T21:13:22.979Z,4.37
2023-05-20T21:16:24.937Z,4.90
2023-05-20T21:19:26.866Z,4.67
2023-05-20T21:22:28.767Z,4.37
2023-05-20T21:25:30.616Z,4.80
2023-05-20T21:28:32.447Z,4.80
2023-05-20T21:31:34.309Z,3.77
2023-05-20T21:34:36.212Z,4.97
2023-05-20T21:37:38.082Z,4.87
2023-05-20T21:40:41.384Z,5.03
2023-05-20T21:43:43.182Z,4.43
2023-05-20T21:46:45.093Z,4.47
2023-05-20T21:49:48.129Z,3.90
2023-05-20T21:52:49.984Z,4.67
2023-05-20T21:55:51.955Z,4.60
2023-05-20T21:58:53.746Z,4.20
2023-05-20T22:01:57.973Z,5.27
2023-05-20T22:05:00.382Z,4.83
2023-05-20T22:08:02.243Z,4.23
2023-05-20T22:11:05.517Z,4.57
2023-05-20T22:14:07.609Z,3.93
2023-05-20T22:17:10.490Z,4.67
2023-05-20T22:20:13.118Z,3.97
2023-05-20T22:23:15.730Z,4.50
2023-05-20T22:26:19.694Z,4.33
2023-05-20T22:29:22.284Z,4.20
2023-05-20T22:32:24.210Z,4.47
2023-05-20T22:35:26.181Z,3.73
2023-05-20T22:38:29.578Z,4.60
2023-05-20T22:41:31.455Z,4.07
2023-05-20T22:44:33.307Z,4.13
2023-05-20T22:47:35.525Z,4.77
2023-05-20T22:50:37.346Z,3.60
2023-05-20T22:53:39.181Z,4.57
2023-05-20T22:56:41.061Z,4.50
2023-05-20T22:59:42.940Z,4.00
2023-05-20T23:02:49.580Z,4.47
2023-05-20T23:05:51.668Z,3.97
2023-05-20T23:08:53.516Z,4.10
2023-05-20T23:11:55.368Z,3.77
2023-05-20T23:14:57.160Z,4.20
2023-05-20T23:17:59.026Z,3.93
2023-05-20T23:21:00.921Z,4.17
2023-05-20T23:24:03.366Z,4.00
2023-05-20T23:27:06.245Z,4.33
2023-05-20T23:30:08.794Z,4.30
2023-05-20T23:33:10.846Z,4.03
2023-05-20T23:36:12.721Z,3.73
2023-05-20T23:39:16.223Z,3.47
2023-05-20T23:42:19.956Z,3.67
2023-05-20T23:45:21.794Z,4.03
2023-05-20T23:48:26.359Z,4.30
2023-05-20T23:51:28.187Z,3.37
2023-05-20T23:54:34.272Z,3.37
2023-05-20T23:57:36.205Z,3.47
